Domov               UVHVVR             MKGP            O straneh              
ZDRAVSTVENO VARSTVO RASTLIN
  MREŽA AGROMET. POSTAJ
 ► PROGNOSTIČNA OBVESTILA
AGROMETEOROLOŠKI PODATKI -
ARSO
OBVLADOVANJE TVEGANJ ZARADI
NEUGODNIH VREMENSKIH RAZMER
  ► NARAVNE NESREČE
  ► SUŠA/MOČA
  ► NAMAKANJE
  ► ŽLED (gozdarstvo)
KARTOGRAFSKI PRIKAZI
SPLETNE POVEZAVE
PROJEKTI IN PUBLIKACIJE

AGROMETEOROLOŠKA MREŽA: VREMENSKE POSTAJE IN FENOLOŠKA OPAZOVANJA

Pregled podatkov za lokacijo Škofja vas, meteorološka postaja 49151

Pregled senzorjev na lokaciji

ID Ime Zadnja
vrednost
Datum
zadnje
spremembe
Tip
senzorja
3712 Temperatura 2 m ( °C) 10,64 °C 24.8.2017 04:30 50YA
3713 Relativna vlaga 2 m (% RH) 100 % RH 24.8.2017 04:30 50YA
3714 Omočenost lista (U) 10 U 24.8.2017 04:30 A730WET
3715 Sončno sevanje (W/m2) 0,55 W/m2 24.8.2017 04:30 Pyranometer SP-Lite
3716 Temperatura tal ( °C) 20,46 °C 24.8.2017 04:30 99TG411E
3717 Hitrost vetra (km/h) 0,05 km/h 24.8.2017 04:30 566.2S-176 (200km/h)
3718 Smer vetra (°) 29,52 ° 24.8.2017 04:30 566.2S-130
3719 Padavine 0.2 mm (mm) 0 mm 24.8.2017 04:30 Rain-O-Matic

Pregled podatkov zadnjih 24 ur

Zap.
št.
Datum in čas Škofja vas
Hitrost
vetra
Omočenost
lista
Padavine
0.2
mm
Relativna
vlaga
2
m
Smer
vetra
Sončno
sevanje
Temperatura
2
m
Temperatura
tal
0 24.8.2017 03:30 0,05 10 0 100 29,52 0,55 10,64 20,46
1 24.8.2017 03:00 0,05 10 0 99,99 49,57 0,52 10,99 20,57
2 24.8.2017 02:30 0,05 10 0 99,84 49,08 0,52 11,22 20,66
3 24.8.2017 02:00 0,05 10 0 99,72 308,9 0,58 11,56 20,74
4 24.8.2017 01:30 0,05 10 0 99,53 31,75 0,52 11,75 20,84
5 24.8.2017 01:00 0,05 10 0 99,17 50,73 0,52 11,93 20,9
6 24.8.2017 00:30 0,05 10 0 98,55 42,31 0,55 12,25 21
7 24.8.2017 00:00 0,05 10 0 97,91 44,67 12,67 21,06
8 23.8.2017 23:30 0,05 10 0 97,11 19,89 13,03 21,15
9 23.8.2017 23:00 0,05 10 0 96,77 60,72 13,38 21,21
10 23.8.2017 22:30 0,05 10 0 95,71 52,9 13,66 21,3
11 23.8.2017 22:00 0,05 10 0 92,91 50,03 14,48 21,35
12 23.8.2017 21:30 0,05 9 0 90,45 29,8 15,21 21,42
13 23.8.2017 21:00 0,05 4 0 89,59 10,9 15,62 21,48
14 23.8.2017 20:30 0,05 1 0 89,32 5,7 15,91 21,49
15 23.8.2017 20:00 0,05 0 0 87,78 54,88 16,41 21,53
16 23.8.2017 19:30 0,05 0 0 86,06 40,73 16,87 21,53
17 23.8.2017 19:00 0,05 0 0 76,66 29,84 6,23 19,3 21,62
18 23.8.2017 18:30 0,05 0 0 60,95 56,64 35,95 22,28 21,76
19 23.8.2017 18:00 0,05 0 0 56,1 110,54 55,05 23,63 21,8
20 23.8.2017 17:30 0,05 0 0 50,17 82,24 119,6 24,62 21,82
21 23.8.2017 17:00 0,05 0 0 48,88 97,23 178,19 25,02 21,81
22 23.8.2017 16:30 0,05 0 0 47,46 119,56 227,3 25,25 21,77
23 23.8.2017 16:00 0,05 0 0 46,61 103,04 295,17 25,48 21,69
24 23.8.2017 15:30 0,05 0 0 49,53 73,89 327,28 24,83 21,51
25 23.8.2017 15:00 0,05 0 0 52,27 79,61 238,19 23,93 21,3
26 23.8.2017 14:30 0,05 0 0 54,38 103,87 177,31 23,36 21,13
27 23.8.2017 14:00 0,05 0 0 51,69 8,49 242,13 23,63 21,06
28 23.8.2017 13:30 0,05 0 0 50,57 111,01 325,84 23,78 20,97
29 23.8.2017 13:00 0,05 0 0 50,69 149,03 418,49 23,35 20,82
30 23.8.2017 12:30 0,05 0 0 49,26 6,55 252,29 22,75 20,67
31 23.8.2017 12:00 0,05 0 0 49,17 50,14 320,38 22,39 20,57
32 23.8.2017 11:30 0,05 0 0 50,96 122,79 422 22,3 20,45
33 23.8.2017 11:00 0,05 0 0 51,78 107,41 335,64 21,88 20,39
34 23.8.2017 10:30 0,05 0 0 55,7 44,33 414,16 21,45 20,35
35 23.8.2017 10:00 0,05 0 0 58,45 144,49 414,65 20,53 20,28
36 23.8.2017 09:30 0,53 0 0 61,95 157,53 365,94 19,89 20,25
37 23.8.2017 09:00 0,05 0 0 71,17 81,56 289,98 17,93 20,19
38 23.8.2017 08:30 0,05 0 0 74,33 99,6 259,92 16,95 20,18
39 23.8.2017 08:00 0,05 10 0 76,94 208,18 192,42 15,81 20,17
40 23.8.2017 07:30 0,16 10 0 83,77 183,08 161,96 14,13 20,15
41 23.8.2017 07:00 0,05 10 0 89,13 268,33 126,65 12,63 20,08
42 23.8.2017 06:30 0,05 10 0 98,56 143,42 82,37 10,61 20,02
43 23.8.2017 06:00 0,05 10 0 100 42,41 26,92 8,57 19,97
44 23.8.2017 05:30 0,05 10 0 100 134,17 2,84 8,07 20,02
© 2011 Ministrstvo za kmetijstvo, gozdarstvo in prehrano. Vse pravice pridržane.